sensor_id;sensor_type;location;lat;lon;timestamp;P1;durP1;ratioP1;P2;durP2;ratioP2
60372;SDS011;46216;52.220;5.134;2022-09-06T00:00:24;3.80;;;2.25;;
60372;SDS011;46216;52.220;5.134;2022-09-06T00:02:50;3.70;;;2.45;;
60372;SDS011;46216;52.220;5.134;2022-09-06T00:05:15;2.78;;;2.40;;
60372;SDS011;46216;52.220;5.134;2022-09-06T00:07:41;5.72;;;3.10;;
60372;SDS011;46216;52.220;5.134;2022-09-06T00:10:07;4.75;;;2.67;;
60372;SDS011;46216;52.220;5.134;2022-09-06T00:12:33;2.83;;;2.40;;
60372;SDS011;46216;52.220;5.134;2022-09-06T00:14:58;3.03;;;2.50;;
60372;SDS011;46216;52.220;5.134;2022-09-06T00:17:24;4.40;;;2.45;;
60372;SDS011;46216;52.220;5.134;2022-09-06T00:19:49;5.78;;;3.03;;
60372;SDS011;46216;52.220;5.134;2022-09-06T00:22:15;3.90;;;3.22;;
60372;SDS011;46216;52.220;5.134;2022-09-06T00:25:00;5.03;;;3.60;;
60372;SDS011;46216;52.220;5.134;2022-09-06T00:27:26;3.88;;;3.30;;
60372;SDS011;46216;52.220;5.134;2022-09-06T00:29:52;5.38;;;3.88;;
60372;SDS011;46216;52.220;5.134;2022-09-06T00:32:17;4.57;;;3.70;;
60372;SDS011;46216;52.220;5.134;2022-09-06T00:34:43;5.50;;;4.22;;
60372;SDS011;46216;52.220;5.134;2022-09-06T00:37:08;5.50;;;3.80;;
60372;SDS011;46216;52.220;5.134;2022-09-06T00:39:34;8.02;;;4.18;;
60372;SDS011;46216;52.220;5.134;2022-09-06T00:41:59;5.93;;;4.07;;
60372;SDS011;46216;52.220;5.134;2022-09-06T00:44:24;4.70;;;4.25;;
60372;SDS011;46216;52.220;5.134;2022-09-06T00:46:50;6.75;;;5.05;;
60372;SDS011;46216;52.220;5.134;2022-09-06T00:49:18;6.50;;;4.25;;
60372;SDS011;46216;52.220;5.134;2022-09-06T00:51:54;5.70;;;4.30;;
60372;SDS011;46216;52.220;5.134;2022-09-06T00:54:23;5.28;;;4.70;;
60372;SDS011;46216;52.220;5.134;2022-09-06T00:56:52;6.80;;;5.03;;
60372;SDS011;46216;52.220;5.134;2022-09-06T00:59:19;5.75;;;5.00;;
60372;SDS011;46216;52.220;5.134;2022-09-06T01:01:44;5.70;;;5.05;;
60372;SDS011;46216;52.220;5.134;2022-09-06T01:04:10;5.80;;;5.10;;
60372;SDS011;46216;52.220;5.134;2022-09-06T01:15:19;7.20;;;5.18;;
60372;SDS011;46216;52.220;5.134;2022-09-06T01:20:36;5.82;;;5.00;;
60372;SDS011;46216;52.220;5.134;2022-09-06T01:26:04;6.50;;;4.88;;
60372;SDS011;46216;52.220;5.134;2022-09-06T01:28:54;5.75;;;5.25;;
60372;SDS011;46216;52.220;5.134;2022-09-06T01:36:43;7.25;;;5.82;;
60372;SDS011;46216;52.220;5.134;2022-09-06T01:39:23;7.65;;;6.50;;
60372;SDS011;46216;52.220;5.134;2022-09-06T01:41:51;6.15;;;5.55;;
60372;SDS011;46216;52.220;5.134;2022-09-06T01:44:19;7.07;;;6.35;;
60372;SDS011;46216;52.220;5.134;2022-09-06T01:46:54;7.28;;;6.57;;
60372;SDS011;46216;52.220;5.134;2022-09-06T01:49:38;7.50;;;6.13;;
60372;SDS011;46216;52.220;5.134;2022-09-06T01:53:04;6.90;;;6.20;;
60372;SDS011;46216;52.220;5.134;2022-09-06T01:55:15;6.47;;;5.80;;
60372;SDS011;46216;52.220;5.134;2022-09-06T01:58:01;6.95;;;5.65;;
60372;SDS011;46216;52.220;5.134;2022-09-06T02:00:39;6.22;;;5.70;;
60372;SDS011;46216;52.220;5.134;2022-09-06T02:03:19;6.05;;;5.40;;
60372;SDS011;46216;52.220;5.134;2022-09-06T02:06:02;6.32;;;5.25;;
60372;SDS011;46216;52.220;5.134;2022-09-06T02:08:33;6.90;;;5.72;;
60372;SDS011;46216;52.220;5.134;2022-09-06T02:11:03;6.22;;;5.38;;
60372;SDS011;46216;52.220;5.134;2022-09-06T02:13:31;4.78;;;4.38;;
60372;SDS011;46216;52.220;5.134;2022-09-06T02:16:02;5.00;;;4.60;;
60372;SDS011;46216;52.220;5.134;2022-09-06T02:21:09;7.40;;;4.60;;
60372;SDS011;46216;52.220;5.134;2022-09-06T02:23:38;4.95;;;4.32;;
60372;SDS011;46216;52.220;5.134;2022-09-06T02:26:08;4.63;;;4.22;;
60372;SDS011;46216;52.220;5.134;2022-09-06T02:28:38;4.70;;;4.30;;
60372;SDS011;46216;52.220;5.134;2022-09-06T02:31:12;5.78;;;4.20;;
60372;SDS011;46216;52.220;5.134;2022-09-06T02:33:43;5.10;;;4.60;;
60372;SDS011;46216;52.220;5.134;2022-09-06T02:36:11;4.80;;;4.07;;
60372;SDS011;46216;52.220;5.134;2022-09-06T02:38:38;5.03;;;4.53;;
60372;SDS011;46216;52.220;5.134;2022-09-06T02:41:05;4.50;;;4.10;;
60372;SDS011;46216;52.220;5.134;2022-09-06T02:43:31;5.32;;;4.30;;
60372;SDS011;46216;52.220;5.134;2022-09-06T02:45:56;4.70;;;4.28;;
60372;SDS011;46216;52.220;5.134;2022-09-06T02:48:21;4.95;;;4.10;;
60372;SDS011;46216;52.220;5.134;2022-09-06T02:50:47;4.70;;;4.30;;
60372;SDS011;46216;52.220;5.134;2022-09-06T02:53:13;4.63;;;4.22;;
60372;SDS011;46216;52.220;5.134;2022-09-06T02:55:39;5.18;;;4.20;;
60372;SDS011;46216;52.220;5.134;2022-09-06T02:58:05;3.90;;;3.60;;
60372;SDS011;46216;52.220;5.134;2022-09-06T03:00:32;6.00;;;4.40;;
60372;SDS011;46216;52.220;5.134;2022-09-06T03:02:58;6.13;;;5.10;;
60372;SDS011;46216;52.220;5.134;2022-09-06T03:05:24;6.25;;;5.65;;
60372;SDS011;46216;52.220;5.134;2022-09-06T03:07:50;5.35;;;4.85;;
60372;SDS011;46216;52.220;5.134;2022-09-06T03:10:16;5.88;;;4.40;;
60372;SDS011;46216;52.220;5.134;2022-09-06T03:12:43;4.88;;;4.30;;
60372;SDS011;46216;52.220;5.134;2022-09-06T03:15:10;5.20;;;4.80;;
60372;SDS011;46216;52.220;5.134;2022-09-06T03:17:36;5.18;;;4.68;;
60372;SDS011;46216;52.220;5.134;2022-09-06T03:20:02;4.50;;;4.10;;
60372;SDS011;46216;52.220;5.134;2022-09-06T03:22:28;5.22;;;4.30;;
60372;SDS011;46216;52.220;5.134;2022-09-06T03:24:54;4.78;;;4.38;;
60372;SDS011;46216;52.220;5.134;2022-09-06T03:27:19;5.70;;;4.60;;
60372;SDS011;46216;52.220;5.134;2022-09-06T03:29:44;5.18;;;4.68;;
60372;SDS011;46216;52.220;5.134;2022-09-06T03:32:10;5.30;;;4.80;;
60372;SDS011;46216;52.220;5.134;2022-09-06T03:34:35;5.05;;;4.55;;
60372;SDS011;46216;52.220;5.134;2022-09-06T03:37:00;6.53;;;4.90;;
60372;SDS011;46216;52.220;5.134;2022-09-06T03:39:26;5.90;;;4.60;;
60372;SDS011;46216;52.220;5.134;2022-09-06T03:41:52;6.47;;;4.82;;
60372;SDS011;46216;52.220;5.134;2022-09-06T03:44:17;5.90;;;5.30;;
60372;SDS011;46216;52.220;5.134;2022-09-06T03:46:42;5.90;;;5.40;;
60372;SDS011;46216;52.220;5.134;2022-09-06T03:49:08;5.50;;;4.90;;
60372;SDS011;46216;52.220;5.134;2022-09-06T03:51:34;8.13;;;5.45;;
60372;SDS011;46216;52.220;5.134;2022-09-06T03:54:00;5.72;;;5.22;;
60372;SDS011;46216;52.220;5.134;2022-09-06T03:56:25;6.20;;;5.55;;
60372;SDS011;46216;52.220;5.134;2022-09-06T03:58:50;5.38;;;4.93;;
60372;SDS011;46216;52.220;5.134;2022-09-06T04:01:16;8.32;;;5.50;;
60372;SDS011;46216;52.220;5.134;2022-09-06T04:03:41;5.82;;;5.20;;
60372;SDS011;46216;52.220;5.134;2022-09-06T04:06:06;5.78;;;5.28;;
60372;SDS011;46216;52.220;5.134;2022-09-06T04:08:33;5.40;;;4.90;;
60372;SDS011;46216;52.220;5.134;2022-09-06T04:10:58;6.00;;;5.50;;
60372;SDS011;46216;52.220;5.134;2022-09-06T04:13:24;5.32;;;4.82;;
60372;SDS011;46216;52.220;5.134;2022-09-06T04:15:51;6.05;;;5.45;;
60372;SDS011;46216;52.220;5.134;2022-09-06T04:18:16;7.63;;;5.40;;
60372;SDS011;46216;52.220;5.134;2022-09-06T04:20:44;7.78;;;5.70;;
60372;SDS011;46216;52.220;5.134;2022-09-06T04:23:11;6.72;;;6.05;;
60372;SDS011;46216;52.220;5.134;2022-09-06T04:25:36;8.02;;;6.03;;
60372;SDS011;46216;52.220;5.134;2022-09-06T04:28:02;7.07;;;6.38;;
60372;SDS011;46216;52.220;5.134;2022-09-06T04:30:27;6.70;;;6.10;;
60372;SDS011;46216;52.220;5.134;2022-09-06T04:32:52;6.78;;;6.22;;
60372;SDS011;46216;52.220;5.134;2022-09-06T04:35:17;6.80;;;6.18;;
60372;SDS011;46216;52.220;5.134;2022-09-06T04:37:43;6.85;;;5.85;;
60372;SDS011;46216;52.220;5.134;2022-09-06T04:40:08;7.93;;;6.68;;
60372;SDS011;46216;52.220;5.134;2022-09-06T04:42:34;7.57;;;6.18;;
60372;SDS011;46216;52.220;5.134;2022-09-06T04:44:59;7.05;;;6.47;;
60372;SDS011;46216;52.220;5.134;2022-09-06T04:47:25;7.35;;;6.60;;
60372;SDS011;46216;52.220;5.134;2022-09-06T04:49:50;8.93;;;6.65;;
60372;SDS011;46216;52.220;5.134;2022-09-06T04:52:16;7.18;;;6.43;;
60372;SDS011;46216;52.220;5.134;2022-09-06T04:54:42;7.90;;;7.10;;
60372;SDS011;46216;52.220;5.134;2022-09-06T04:57:07;8.68;;;7.88;;
60372;SDS011;46216;52.220;5.134;2022-09-06T04:59:33;8.55;;;7.72;;
60372;SDS011;46216;52.220;5.134;2022-09-06T05:01:58;7.93;;;7.15;;
60372;SDS011;46216;52.220;5.134;2022-09-06T05:04:23;8.00;;;7.20;;
60372;SDS011;46216;52.220;5.134;2022-09-06T05:06:49;10.05;;;9.05;;
60372;SDS011;46216;52.220;5.134;2022-09-06T05:09:23;9.32;;;7.93;;
60372;SDS011;46216;52.220;5.134;2022-09-06T05:11:49;9.57;;;8.57;;
60372;SDS011;46216;52.220;5.134;2022-09-06T05:14:14;8.50;;;7.80;;
60372;SDS011;46216;52.220;5.134;2022-09-06T05:16:40;10.25;;;9.07;;
60372;SDS011;46216;52.220;5.134;2022-09-06T05:19:06;9.38;;;8.48;;
60372;SDS011;46216;52.220;5.134;2022-09-06T05:21:31;10.10;;;9.15;;
60372;SDS011;46216;52.220;5.134;2022-09-06T05:23:56;11.32;;;9.77;;
60372;SDS011;46216;52.220;5.134;2022-09-06T05:26:21;10.20;;;9.18;;
60372;SDS011;46216;52.220;5.134;2022-09-06T05:28:47;10.85;;;9.75;;
60372;SDS011;46216;52.220;5.134;2022-09-06T05:31:22;12.07;;;10.90;;
60372;SDS011;46216;52.220;5.134;2022-09-06T05:33:52;12.27;;;11.02;;
60372;SDS011;46216;52.220;5.134;2022-09-06T05:36:19;13.30;;;11.98;;
60372;SDS011;46216;52.220;5.134;2022-09-06T05:38:48;13.35;;;11.95;;
60372;SDS011;46216;52.220;5.134;2022-09-06T05:41:14;12.52;;;11.32;;
60372;SDS011;46216;52.220;5.134;2022-09-06T05:43:39;12.98;;;11.68;;
60372;SDS011;46216;52.220;5.134;2022-09-06T05:46:05;12.40;;;11.20;;
60372;SDS011;46216;52.220;5.134;2022-09-06T05:48:30;13.13;;;11.82;;
60372;SDS011;46216;52.220;5.134;2022-09-06T05:50:59;14.70;;;13.20;;
60372;SDS011;46216;52.220;5.134;2022-09-06T05:53:25;14.15;;;12.70;;
60372;SDS011;46216;52.220;5.134;2022-09-06T05:55:50;15.52;;;13.93;;
60372;SDS011;46216;52.220;5.134;2022-09-06T05:58:16;14.23;;;12.80;;
60372;SDS011;46216;52.220;5.134;2022-09-06T06:00:41;14.75;;;13.25;;
60372;SDS011;46216;52.220;5.134;2022-09-06T06:03:06;15.57;;;13.80;;
60372;SDS011;46216;52.220;5.134;2022-09-06T06:05:31;15.05;;;13.48;;
60372;SDS011;46216;52.220;5.134;2022-09-06T06:07:57;15.00;;;12.55;;
60372;SDS011;46216;52.220;5.134;2022-09-06T06:10:23;14.88;;;13.48;;
60372;SDS011;46216;52.220;5.134;2022-09-06T06:12:49;15.20;;;13.60;;
60372;SDS011;46216;52.220;5.134;2022-09-06T06:15:14;15.15;;;13.65;;
60372;SDS011;46216;52.220;5.134;2022-09-06T06:17:39;15.68;;;14.18;;
60372;SDS011;46216;52.220;5.134;2022-09-06T06:20:05;15.80;;;14.20;;
60372;SDS011;46216;52.220;5.134;2022-09-06T06:22:30;15.77;;;14.27;;
60372;SDS011;46216;52.220;5.134;2022-09-06T06:24:56;14.88;;;13.45;;
60372;SDS011;46216;52.220;5.134;2022-09-06T06:27:21;16.45;;;14.43;;
60372;SDS011;46216;52.220;5.134;2022-09-06T06:29:46;16.17;;;14.52;;
60372;SDS011;46216;52.220;5.134;2022-09-06T06:32:12;15.18;;;13.68;;
60372;SDS011;46216;52.220;5.134;2022-09-06T06:34:37;14.55;;;13.13;;
60372;SDS011;46216;52.220;5.134;2022-09-06T06:37:02;14.93;;;13.00;;
60372;SDS011;46216;52.220;5.134;2022-09-06T06:39:27;15.02;;;13.38;;
60372;SDS011;46216;52.220;5.134;2022-09-06T06:41:53;15.43;;;12.68;;
60372;SDS011;46216;52.220;5.134;2022-09-06T06:44:19;14.23;;;12.80;;
60372;SDS011;46216;52.220;5.134;2022-09-06T06:46:44;13.38;;;11.75;;
60372;SDS011;46216;52.220;5.134;2022-09-06T06:49:10;13.10;;;11.65;;
60372;SDS011;46216;52.220;5.134;2022-09-06T06:51:35;16.20;;;12.05;;
60372;SDS011;46216;52.220;5.134;2022-09-06T06:54:02;14.90;;;12.52;;
60372;SDS011;46216;52.220;5.134;2022-09-06T06:56:29;15.02;;;11.38;;
60372;SDS011;46216;52.220;5.134;2022-09-06T06:58:56;12.75;;;11.52;;
60372;SDS011;46216;52.220;5.134;2022-09-06T07:01:23;13.90;;;12.30;;
60372;SDS011;46216;52.220;5.134;2022-09-06T07:03:50;14.18;;;12.77;;
60372;SDS011;46216;52.220;5.134;2022-09-06T07:06:16;15.68;;;12.10;;
60372;SDS011;46216;52.220;5.134;2022-09-06T07:08:42;14.10;;;12.63;;
60372;SDS011;46216;52.220;5.134;2022-09-06T07:11:09;13.88;;;12.40;;
60372;SDS011;46216;52.220;5.134;2022-09-06T07:13:36;12.32;;;11.13;;
60372;SDS011;46216;52.220;5.134;2022-09-06T07:16:21;14.15;;;12.38;;
60372;SDS011;46216;52.220;5.134;2022-09-06T07:18:51;14.70;;;12.55;;
60372;SDS011;46216;52.220;5.134;2022-09-06T07:21:18;13.48;;;12.00;;
60372;SDS011;46216;52.220;5.134;2022-09-06T07:23:45;12.45;;;11.25;;
60372;SDS011;46216;52.220;5.134;2022-09-06T07:26:16;12.13;;;10.70;;
60372;SDS011;46216;52.220;5.134;2022-09-06T07:28:42;11.18;;;10.18;;
60372;SDS011;46216;52.220;5.134;2022-09-06T07:31:08;11.75;;;10.10;;
60372;SDS011;46216;52.220;5.134;2022-09-06T07:33:35;12.70;;;10.15;;
60372;SDS011;46216;52.220;5.134;2022-09-06T07:36:02;10.88;;;9.77;;
60372;SDS011;46216;52.220;5.134;2022-09-06T07:38:29;9.77;;;8.75;;
60372;SDS011;46216;52.220;5.134;2022-09-06T07:40:55;9.77;;;8.85;;
60372;SDS011;46216;52.220;5.134;2022-09-06T07:43:23;10.60;;;9.25;;
60372;SDS011;46216;52.220;5.134;2022-09-06T07:45:56;9.82;;;8.93;;
60372;SDS011;46216;52.220;5.134;2022-09-06T07:48:22;10.55;;;8.68;;
60372;SDS011;46216;52.220;5.134;2022-09-06T07:50:48;9.95;;;8.57;;
60372;SDS011;46216;52.220;5.134;2022-09-06T07:53:13;9.60;;;8.68;;
60372;SDS011;46216;52.220;5.134;2022-09-06T07:55:38;9.70;;;8.73;;
60372;SDS011;46216;52.220;5.134;2022-09-06T07:58:04;9.10;;;8.05;;
60372;SDS011;46216;52.220;5.134;2022-09-06T08:00:29;9.55;;;7.63;;
60372;SDS011;46216;52.220;5.134;2022-09-06T08:02:55;7.85;;;7.15;;
60372;SDS011;46216;52.220;5.134;2022-09-06T08:05:20;8.57;;;7.78;;
60372;SDS011;46216;52.220;5.134;2022-09-06T08:07:46;10.07;;;8.18;;
60372;SDS011;46216;52.220;5.134;2022-09-06T08:10:11;8.82;;;7.43;;
60372;SDS011;46216;52.220;5.134;2022-09-06T08:12:36;10.05;;;7.50;;
60372;SDS011;46216;52.220;5.134;2022-09-06T08:15:02;8.02;;;7.10;;
60372;SDS011;46216;52.220;5.134;2022-09-06T08:17:27;7.38;;;6.65;;
60372;SDS011;46216;52.220;5.134;2022-09-06T08:19:52;8.65;;;6.75;;
60372;SDS011;46216;52.220;5.134;2022-09-06T08:22:18;6.97;;;6.10;;
60372;SDS011;46216;52.220;5.134;2022-09-06T08:24:43;7.97;;;6.25;;
60372;SDS011;46216;52.220;5.134;2022-09-06T08:27:08;6.90;;;6.10;;
60372;SDS011;46216;52.220;5.134;2022-09-06T08:29:34;10.32;;;6.35;;
60372;SDS011;46216;52.220;5.134;2022-09-06T08:32:00;7.20;;;5.55;;
60372;SDS011;46216;52.220;5.134;2022-09-06T08:34:25;6.28;;;5.68;;
60372;SDS011;46216;52.220;5.134;2022-09-06T08:36:51;6.03;;;5.43;;
60372;SDS011;46216;52.220;5.134;2022-09-06T08:39:16;7.22;;;5.68;;
60372;SDS011;46216;52.220;5.134;2022-09-06T08:41:46;7.28;;;5.80;;
60372;SDS011;46216;52.220;5.134;2022-09-06T08:47:07;10.93;;;6.10;;
60372;SDS011;46216;52.220;5.134;2022-09-06T08:49:36;7.53;;;6.28;;
60372;SDS011;46216;52.220;5.134;2022-09-06T08:55:00;6.05;;;5.45;;
60372;SDS011;46216;52.220;5.134;2022-09-06T09:00:16;5.45;;;4.97;;
60372;SDS011;46216;52.220;5.134;2022-09-06T09:02:58;6.25;;;5.00;;
60372;SDS011;46216;52.220;5.134;2022-09-06T09:05:29;5.72;;;4.80;;
60372;SDS011;46216;52.220;5.134;2022-09-06T09:08:02;5.68;;;5.13;;
60372;SDS011;46216;52.220;5.134;2022-09-06T09:10:33;6.00;;;5.38;;
60372;SDS011;46216;52.220;5.134;2022-09-06T09:13:17;7.10;;;5.35;;
60372;SDS011;46216;52.220;5.134;2022-09-06T09:15:48;6.00;;;5.40;;
60372;SDS011;46216;52.220;5.134;2022-09-06T09:18:21;6.35;;;5.00;;
60372;SDS011;46216;52.220;5.134;2022-09-06T09:20:49;6.88;;;6.18;;
60372;SDS011;46216;52.220;5.134;2022-09-06T09:23:15;6.70;;;6.00;;
60372;SDS011;46216;52.220;5.134;2022-09-06T09:25:40;6.60;;;5.88;;
60372;SDS011;46216;52.220;5.134;2022-09-06T09:28:09;7.97;;;6.22;;
60372;SDS011;46216;52.220;5.134;2022-09-06T09:30:44;8.32;;;5.63;;
60372;SDS011;46216;52.220;5.134;2022-09-06T09:35:49;6.95;;;5.97;;
60372;SDS011;46216;52.220;5.134;2022-09-06T09:38:19;7.00;;;5.93;;
60372;SDS011;46216;52.220;5.134;2022-09-06T09:40:51;7.53;;;6.65;;
60372;SDS011;46216;52.220;5.134;2022-09-06T09:43:23;8.98;;;7.60;;
60372;SDS011;46216;52.220;5.134;2022-09-06T09:46:06;8.77;;;6.70;;
60372;SDS011;46216;52.220;5.134;2022-09-06T09:48:35;9.68;;;7.15;;
60372;SDS011;46216;52.220;5.134;2022-09-06T09:51:17;8.52;;;6.90;;
60372;SDS011;46216;52.220;5.134;2022-09-06T09:53:51;8.30;;;6.68;;
60372;SDS011;46216;52.220;5.134;2022-09-06T09:57:05;8.70;;;6.80;;
60372;SDS011;46216;52.220;5.134;2022-09-06T10:04:48;7.68;;;6.97;;
60372;SDS011;46216;52.220;5.134;2022-09-06T10:07:17;8.27;;;7.47;;
60372;SDS011;46216;52.220;5.134;2022-09-06T10:09:47;8.85;;;6.82;;
60372;SDS011;46216;52.220;5.134;2022-09-06T10:12:30;8.52;;;7.63;;
60372;SDS011;46216;52.220;5.134;2022-09-06T10:15:00;8.95;;;6.65;;
60372;SDS011;46216;52.220;5.134;2022-09-06T10:17:28;6.70;;;6.10;;
60372;SDS011;46216;52.220;5.134;2022-09-06T10:20:12;9.43;;;7.28;;
60372;SDS011;46216;52.220;5.134;2022-09-06T10:25:27;11.25;;;7.40;;
60372;SDS011;46216;52.220;5.134;2022-09-06T10:28:42;7.68;;;6.95;;
60372;SDS011;46216;52.220;5.134;2022-09-06T10:31:13;7.85;;;7.15;;
60372;SDS011;46216;52.220;5.134;2022-09-06T10:34:06;8.80;;;6.50;;
60372;SDS011;46216;52.220;5.134;2022-09-06T10:42:28;5.97;;;4.93;;
60372;SDS011;46216;52.220;5.134;2022-09-06T10:47:37;7.03;;;5.20;;
60372;SDS011;46216;52.220;5.134;2022-09-06T10:50:18;5.68;;;4.30;;
60372;SDS011;46216;52.220;5.134;2022-09-06T10:52:44;6.22;;;5.40;;
60372;SDS011;46216;52.220;5.134;2022-09-06T10:55:13;6.90;;;4.45;;
60372;SDS011;46216;52.220;5.134;2022-09-06T10:57:45;5.22;;;4.72;;
60372;SDS011;46216;52.220;5.134;2022-09-06T11:00:14;6.63;;;5.57;;
60372;SDS011;46216;52.220;5.134;2022-09-06T11:02:43;8.50;;;5.70;;
60372;SDS011;46216;52.220;5.134;2022-09-06T11:05:27;8.75;;;6.50;;
60372;SDS011;46216;52.220;5.134;2022-09-06T11:08:08;7.80;;;6.10;;
60372;SDS011;46216;52.220;5.134;2022-09-06T11:10:40;6.80;;;5.75;;
60372;SDS011;46216;52.220;5.134;2022-09-06T11:13:14;11.57;;;7.57;;
60372;SDS011;46216;52.220;5.134;2022-09-06T11:18:22;7.97;;;5.90;;
60372;SDS011;46216;52.220;5.134;2022-09-06T11:23:39;11.48;;;6.50;;
60372;SDS011;46216;52.220;5.134;2022-09-06T11:26:20;7.18;;;6.35;;
60372;SDS011;46216;52.220;5.134;2022-09-06T11:28:55;11.38;;;6.40;;
60372;SDS011;46216;52.220;5.134;2022-09-06T11:31:33;9.05;;;6.13;;
60372;SDS011;46216;52.220;5.134;2022-09-06T11:34:21;6.35;;;5.65;;
60372;SDS011;46216;52.220;5.134;2022-09-06T11:36:50;6.63;;;5.97;;
60372;SDS011;46216;52.220;5.134;2022-09-06T11:39:23;7.75;;;6.05;;
60372;SDS011;46216;52.220;5.134;2022-09-06T11:41:55;16.38;;;7.00;;
60372;SDS011;46216;52.220;5.134;2022-09-06T11:47:33;8.27;;;6.95;;
60372;SDS011;46216;52.220;5.134;2022-09-06T11:52:48;11.05;;;8.50;;
60372;SDS011;46216;52.220;5.134;2022-09-06T11:55:30;11.40;;;8.40;;
60372;SDS011;46216;52.220;5.134;2022-09-06T11:58:01;8.82;;;7.32;;
60372;SDS011;46216;52.220;5.134;2022-09-06T12:00:28;8.55;;;6.65;;
60372;SDS011;46216;52.220;5.134;2022-09-06T12:02:54;9.77;;;7.18;;
60372;SDS011;46216;52.220;5.134;2022-09-06T12:05:27;8.85;;;7.95;;
60372;SDS011;46216;52.220;5.134;2022-09-06T12:16:03;11.02;;;8.80;;
60372;SDS011;46216;52.220;5.134;2022-09-06T12:21:55;12.63;;;9.70;;
60372;SDS011;46216;52.220;5.134;2022-09-06T12:27:16;11.65;;;9.35;;
60372;SDS011;46216;52.220;5.134;2022-09-06T12:30:04;12.25;;;9.40;;
60372;SDS011;46216;52.220;5.134;2022-09-06T12:35:11;11.80;;;10.60;;
60372;SDS011;46216;52.220;5.134;2022-09-06T12:37:56;11.98;;;10.70;;
60372;SDS011;46216;52.220;5.134;2022-09-06T12:40:24;13.07;;;9.20;;
60372;SDS011;46216;52.220;5.134;2022-09-06T12:42:51;11.43;;;10.23;;
60372;SDS011;46216;52.220;5.134;2022-09-06T12:45:18;11.63;;;10.43;;
60372;SDS011;46216;52.220;5.134;2022-09-06T12:47:48;11.23;;;9.60;;
60372;SDS011;46216;52.220;5.134;2022-09-06T12:50:21;9.38;;;8.45;;
60372;SDS011;46216;52.220;5.134;2022-09-06T12:52:53;11.60;;;10.18;;
60372;SDS011;46216;52.220;5.134;2022-09-06T12:55:40;12.35;;;10.00;;
60372;SDS011;46216;52.220;5.134;2022-09-06T12:58:07;10.95;;;9.85;;
60372;SDS011;46216;52.220;5.134;2022-09-06T13:05:49;10.02;;;9.10;;
60372;SDS011;46216;52.220;5.134;2022-09-06T13:08:31;11.07;;;9.95;;
60372;SDS011;46216;52.220;5.134;2022-09-06T13:11:06;9.70;;;8.70;;
60372;SDS011;46216;52.220;5.134;2022-09-06T13:13:35;7.95;;;7.15;;
60372;SDS011;46216;52.220;5.134;2022-09-06T13:16:00;11.85;;;9.15;;
60372;SDS011;46216;52.220;5.134;2022-09-06T13:18:34;10.18;;;8.48;;
60372;SDS011;46216;52.220;5.134;2022-09-06T13:21:09;9.20;;;7.60;;
60372;SDS011;46216;52.220;5.134;2022-09-06T13:23:44;9.88;;;8.88;;
60372;SDS011;46216;52.220;5.134;2022-09-06T13:26:30;9.85;;;8.85;;
60372;SDS011;46216;52.220;5.134;2022-09-06T13:31:43;9.93;;;8.73;;
60372;SDS011;46216;52.220;5.134;2022-09-06T13:34:10;9.25;;;6.68;;
60372;SDS011;46216;52.220;5.134;2022-09-06T13:36:47;8.60;;;7.20;;
60372;SDS011;46216;52.220;5.134;2022-09-06T13:39:27;9.20;;;7.55;;
60372;SDS011;46216;52.220;5.134;2022-09-06T13:41:55;8.70;;;7.60;;
60372;SDS011;46216;52.220;5.134;2022-09-06T13:44:29;9.32;;;8.43;;
60372;SDS011;46216;52.220;5.134;2022-09-06T13:46:57;9.77;;;7.82;;
60372;SDS011;46216;52.220;5.134;2022-09-06T13:49:23;6.93;;;6.22;;
60372;SDS011;46216;52.220;5.134;2022-09-06T13:51:50;8.25;;;5.72;;
60372;SDS011;46216;52.220;5.134;2022-09-06T13:54:17;8.30;;;7.50;;
60372;SDS011;46216;52.220;5.134;2022-09-06T13:56:42;7.82;;;6.55;;
60372;SDS011;46216;52.220;5.134;2022-09-06T13:59:09;7.57;;;6.30;;
60372;SDS011;46216;52.220;5.134;2022-09-06T14:01:36;10.02;;;7.57;;
60372;SDS011;46216;52.220;5.134;2022-09-06T14:04:02;6.95;;;6.32;;
60372;SDS011;46216;52.220;5.134;2022-09-06T14:06:29;6.80;;;5.50;;
60372;SDS011;46216;52.220;5.134;2022-09-06T14:08:54;9.88;;;6.82;;
60372;SDS011;46216;52.220;5.134;2022-09-06T14:11:19;8.80;;;7.00;;
60372;SDS011;46216;52.220;5.134;2022-09-06T14:13:46;9.45;;;8.55;;
60372;SDS011;46216;52.220;5.134;2022-09-06T14:16:11;10.02;;;8.93;;
60372;SDS011;46216;52.220;5.134;2022-09-06T14:18:37;8.25;;;7.20;;
60372;SDS011;46216;52.220;5.134;2022-09-06T14:21:04;9.45;;;7.45;;
60372;SDS011;46216;52.220;5.134;2022-09-06T14:23:29;8.60;;;7.25;;
60372;SDS011;46216;52.220;5.134;2022-09-06T14:25:55;9.82;;;6.80;;
60372;SDS011;46216;52.220;5.134;2022-09-06T14:28:22;7.88;;;7.18;;
60372;SDS011;46216;52.220;5.134;2022-09-06T14:30:48;8.07;;;7.28;;
60372;SDS011;46216;52.220;5.134;2022-09-06T14:33:13;7.93;;;6.93;;
60372;SDS011;46216;52.220;5.134;2022-09-06T14:35:39;8.05;;;6.85;;
60372;SDS011;46216;52.220;5.134;2022-09-06T14:38:04;7.30;;;5.97;;
60372;SDS011;46216;52.220;5.134;2022-09-06T14:40:33;8.80;;;7.78;;
60372;SDS011;46216;52.220;5.134;2022-09-06T14:42:59;6.72;;;6.10;;
60372;SDS011;46216;52.220;5.134;2022-09-06T14:45:24;5.85;;;5.25;;
60372;SDS011;46216;52.220;5.134;2022-09-06T14:47:50;6.28;;;5.65;;
60372;SDS011;46216;52.220;5.134;2022-09-06T14:50:15;4.57;;;4.15;;
60372;SDS011;46216;52.220;5.134;2022-09-06T14:52:40;6.65;;;5.30;;
60372;SDS011;46216;52.220;5.134;2022-09-06T14:55:06;6.03;;;3.75;;
60372;SDS011;46216;52.220;5.134;2022-09-06T14:57:31;4.28;;;3.58;;
60372;SDS011;46216;52.220;5.134;2022-09-06T14:59:57;3.88;;;3.30;;
60372;SDS011;46216;52.220;5.134;2022-09-06T15:02:22;5.72;;;3.67;;
60372;SDS011;46216;52.220;5.134;2022-09-06T15:04:48;4.88;;;3.53;;
60372;SDS011;46216;52.220;5.134;2022-09-06T15:07:13;5.35;;;3.25;;
60372;SDS011;46216;52.220;5.134;2022-09-06T15:09:38;4.38;;;2.95;;
60372;SDS011;46216;52.220;5.134;2022-09-06T15:12:04;5.05;;;4.13;;
60372;SDS011;46216;52.220;5.134;2022-09-06T15:14:29;4.55;;;3.22;;
60372;SDS011;46216;52.220;5.134;2022-09-06T15:16:55;4.63;;;2.88;;
60372;SDS011;46216;52.220;5.134;2022-09-06T15:19:23;3.60;;;3.10;;
60372;SDS011;46216;52.220;5.134;2022-09-06T15:21:50;5.50;;;3.20;;
60372;SDS011;46216;52.220;5.134;2022-09-06T15:24:16;4.53;;;3.10;;
60372;SDS011;46216;52.220;5.134;2022-09-06T15:26:42;6.72;;;2.90;;
60372;SDS011;46216;52.220;5.134;2022-09-06T15:29:11;4.35;;;3.25;;
60372;SDS011;46216;52.220;5.134;2022-09-06T15:31:37;5.03;;;3.08;;
60372;SDS011;46216;52.220;5.134;2022-09-06T15:34:04;5.25;;;3.35;;
60372;SDS011;46216;52.220;5.134;2022-09-06T15:36:31;4.78;;;3.40;;
60372;SDS011;46216;52.220;5.134;2022-09-06T15:39:02;4.47;;;3.20;;
60372;SDS011;46216;52.220;5.134;2022-09-06T15:41:29;8.43;;;3.58;;
60372;SDS011;46216;52.220;5.134;2022-09-06T15:43:57;4.15;;;3.55;;
60372;SDS011;46216;52.220;5.134;2022-09-06T15:47:09;6.40;;;4.00;;
60372;SDS011;46216;52.220;5.134;2022-09-06T15:49:18;6.63;;;4.95;;
60372;SDS011;46216;52.220;5.134;2022-09-06T15:51:49;9.20;;;5.18;;
60372;SDS011;46216;52.220;5.134;2022-09-06T15:54:15;7.55;;;5.15;;
60372;SDS011;46216;52.220;5.134;2022-09-06T15:56:42;8.75;;;6.13;;
60372;SDS011;46216;52.220;5.134;2022-09-06T15:59:08;9.73;;;5.55;;
60372;SDS011;46216;52.220;5.134;2022-09-06T16:01:34;7.40;;;5.53;;
60372;SDS011;46216;52.220;5.134;2022-09-06T16:04:00;7.70;;;5.60;;
60372;SDS011;46216;52.220;5.134;2022-09-06T16:06:31;10.45;;;4.80;;
60372;SDS011;46216;52.220;5.134;2022-09-06T16:09:04;6.45;;;4.53;;
60372;SDS011;46216;52.220;5.134;2022-09-06T16:11:31;5.45;;;4.25;;
60372;SDS011;46216;52.220;5.134;2022-09-06T16:13:57;6.60;;;4.57;;
60372;SDS011;46216;52.220;5.134;2022-09-06T16:16:22;7.35;;;4.40;;
60372;SDS011;46216;52.220;5.134;2022-09-06T16:18:48;6.13;;;4.53;;